Time;durP1;ratioP1;P1;durP2;ratioP2;P2;SDS_P1;SDS_P2;PMS_P1;PMS_P2;Temp;Humidity;BMP_temperature;BMP_pressure;BME280_temperature;BME280_humidity;BME280_pressure;Samples;Min_cycle;Max_cycle;Signal;HPM_P1;HPM_P2
2023/01/12 00:01:25;;;;;;;17.33;4.57;;;9.50;99.90;;;;;;5093229;28;20290;-55
2023/01/12 00:03:52;;;;;;;17.38;5.10;;;9.50;99.90;;;;;;5093143;28;20724;-54
2023/01/12 00:06:18;;;;;;;20.83;5.18;;;9.50;99.90;;;;;;5093381;28;20198;-55
2023/01/12 00:08:47;;;;;;;20.25;5.05;;;9.50;99.90;;;;;;5092977;28;20181;-53
2023/01/12 00:11:14;;;;;;;18.85;5.20;;;9.50;99.90;;;;;;5092904;28;20173;-55
2023/01/12 00:13:40;;;;;;;21.65;5.28;;;9.50;99.90;;;;;;5093133;28;20182;-55
2023/01/12 00:18:50;;;;;;;21.83;5.50;;;9.50;99.90;;;;;;5093254;28;20185;-55
2023/01/12 00:21:16;;;;;;;18.73;5.60;;;9.50;99.90;;;;;;5092867;28;20174;-54
2023/01/12 00:23:43;;;;;;;20.27;5.15;;;9.50;99.90;;;;;;5092738;28;20593;-51
2023/01/12 00:26:09;;;;;;;21.98;5.28;;;9.60;99.90;;;;;;5093085;28;20183;-54
2023/01/12 00:28:35;;;;;;;20.75;5.05;;;9.50;99.90;;;;;;5092984;28;20198;-51
2023/01/12 00:31:02;;;;;;;18.02;5.03;;;9.50;99.90;;;;;;5096162;28;20162;-53
2023/01/12 00:33:28;;;;;;;20.67;5.38;;;9.60;99.90;;;;;;5096654;28;20174;-55
2023/01/12 00:35:54;;;;;;;19.15;4.70;;;9.70;99.90;;;;;;5096601;28;20321;-54
2023/01/12 00:38:19;;;;;;;24.02;5.25;;;9.70;99.90;;;;;;5096790;28;20177;-54
2023/01/12 00:40:45;;;;;;;24.77;5.63;;;9.60;99.90;;;;;;5096627;28;20178;-53
2023/01/12 00:45:55;;;;;;;19.17;5.30;;;9.70;99.90;;;;;;5096560;28;20189;-54
2023/01/12 00:48:21;;;;;;;21.23;5.07;;;9.70;99.90;;;;;;5096637;28;20170;-54
2023/01/12 00:50:47;;;;;;;19.10;5.40;;;9.70;99.90;;;;;;5096269;28;20227;-54
2023/01/12 00:53:13;;;;;;;17.83;5.07;;;9.70;99.90;;;;;;5096451;28;20178;-55
2023/01/12 00:55:39;;;;;;;23.77;5.35;;;9.70;99.90;;;;;;5096062;28;20635;-54
2023/01/12 00:58:05;;;;;;;19.83;5.75;;;9.60;99.90;;;;;;5096250;28;20169;-54
2023/01/12 01:00:30;;;;;;;17.67;4.70;;;9.50;99.90;;;;;;5096196;28;20174;-54
2023/01/12 01:02:57;;;;;;;17.08;4.90;;;9.50;99.90;;;;;;5095998;28;20251;-53
2023/01/12 01:05:23;;;;;;;21.63;4.85;;;9.40;99.90;;;;;;5096103;28;20243;-54
2023/01/12 01:07:48;;;;;;;24.98;5.65;;;9.40;99.90;;;;;;5096227;28;20182;-54
2023/01/12 01:10:15;;;;;;;21.42;4.38;;;9.40;99.90;;;;;;5096086;28;20209;-54
2023/01/12 01:12:41;;;;;;;20.25;4.88;;;9.40;99.90;;;;;;5095793;28;20182;-56
2023/01/12 01:15:08;;;;;;;17.23;4.70;;;9.40;99.90;;;;;;5095802;28;20231;-54
2023/01/12 01:17:34;;;;;;;21.90;5.13;;;9.50;99.90;;;;;;5095790;28;20567;-55
2023/01/12 01:20:00;;;;;;;23.83;5.72;;;9.50;99.90;;;;;;5095994;28;20166;-53
2023/01/12 01:22:26;;;;;;;18.80;5.07;;;9.50;99.90;;;;;;5095833;28;20314;-54
2023/01/12 01:24:52;;;;;;;20.15;5.25;;;9.50;99.90;;;;;;5095667;28;20186;-54
2023/01/12 01:27:17;;;;;;;17.67;5.10;;;9.50;99.90;;;;;;5077565;28;20265;-54
2023/01/12 01:29:43;;;;;;;19.75;5.07;;;9.60;99.90;;;;;;5095636;28;20174;-53
2023/01/12 01:32:09;;;;;;;18.60;4.82;;;9.50;99.90;;;;;;5095518;28;20178;-55
2023/01/12 01:34:35;;;;;;;21.65;5.88;;;9.50;99.90;;;;;;5095996;28;20264;-55
2023/01/12 01:37:00;;;;;;;15.93;5.00;;;9.50;99.90;;;;;;5095696;28;20202;-54
2023/01/12 01:39:26;;;;;;;19.38;5.70;;;9.50;99.90;;;;;;5095555;28;20213;-54
2023/01/12 01:41:52;;;;;;;16.17;4.82;;;9.50;99.90;;;;;;5095441;28;20174;-55
2023/01/12 01:44:48;;;;;;;17.15;5.07;;;9.40;99.90;;;;;;5095394;28;20217;-55
2023/01/12 01:47:24;;;;;;;22.58;5.70;;;9.50;99.90;;;;;;5074472;28;20242;-53
2023/01/12 01:49:53;;;;;;;19.85;4.80;;;9.50;99.90;;;;;;5095405;28;20630;-54
2023/01/12 01:52:33;;;;;;;17.95;5.03;;;9.40;99.90;;;;;;5095147;28;20180;-54
2023/01/12 01:55:13;;;;;;;17.02;5.20;;;9.50;99.90;;;;;;5095134;28;20166;-54
2023/01/12 01:57:53;;;;;;;18.25;4.72;;;9.50;99.90;;;;;;5095336;28;20299;-54
2023/01/12 02:00:19;;;;;;;13.52;4.93;;;9.50;99.90;;;;;;5095248;28;20261;-54
2023/01/12 02:02:46;;;;;;;17.75;4.80;;;9.50;99.90;;;;;;5094838;28;20261;-54
2023/01/12 02:05:15;;;;;;;12.95;4.50;;;9.50;99.90;;;;;;5094843;28;20643;-55
2023/01/12 02:07:41;;;;;;;19.65;5.55;;;9.50;99.90;;;;;;5094759;28;20170;-57
2023/01/12 02:10:08;;;;;;;14.90;5.03;;;9.40;99.90;;;;;;5095042;28;20162;-54
2023/01/12 02:18:23;;;;;;;19.92;5.28;;;9.40;99.90;;;;;;5094938;28;20181;-52
2023/01/12 02:21:06;;;;;;;13.73;5.00;;;9.50;99.90;;;;;;5094642;28;20169;-53
2023/01/12 02:24:09;;;;;;;16.52;4.88;;;9.50;99.90;;;;;;5094446;28;20773;-54
2023/01/12 02:26:51;;;;;;;18.73;5.30;;;9.50;99.90;;;;;;5094736;28;20201;-52
2023/01/12 02:29:26;;;;;;;14.98;5.20;;;9.50;99.90;;;;;;5094618;28;20557;-55
2023/01/12 02:32:10;;;;;;;20.25;5.80;;;9.50;99.90;;;;;;5094768;28;20634;-54
2023/01/12 02:34:54;;;;;;;17.67;5.03;;;9.50;99.90;;;;;;5094243;28;20196;-54
2023/01/12 02:37:44;;;;;;;17.65;5.10;;;9.50;99.90;;;;;;5094409;28;20662;-53
2023/01/12 02:40:58;;;;;;;20.95;5.20;;;9.50;99.90;;;;;;5094390;28;20178;-54
2023/01/12 02:43:28;;;;;;;18.23;5.22;;;9.40;99.90;;;;;;5057533;28;20229;-54
2023/01/12 02:46:10;;;;;;;17.55;4.90;;;9.50;99.90;;;;;;5094316;28;20170;-54
2023/01/12 02:49:00;;;;;;;18.70;5.53;;;9.50;99.90;;;;;;5094046;28;20643;-54
2023/01/12 02:51:37;;;;;;;17.17;5.03;;;9.50;99.90;;;;;;5094035;28;20169;-55
2023/01/12 02:54:09;;;;;;;17.48;4.78;;;9.50;99.90;;;;;;5093172;28;20517;-55
2023/01/12 02:56:43;;;;;;;19.10;4.80;;;9.50;99.90;;;;;;5093923;28;20177;-52
2023/01/12 02:59:25;;;;;;;18.58;5.25;;;9.50;99.90;;;;;;5093951;28;20662;-53
2023/01/12 03:01:56;;;;;;;22.45;5.28;;;9.50;99.90;;;;;;5093718;28;20202;-54
2023/01/12 03:04:23;;;;;;;19.75;4.85;;;9.50;99.90;;;;;;5094050;28;20201;-53
2023/01/12 03:06:55;;;;;;;18.70;5.47;;;9.50;99.90;;;;;;5093911;28;20197;-54
2023/01/12 03:09:25;;;;;;;15.95;4.80;;;9.50;99.90;;;;;;5093804;28;20170;-55
2023/01/12 03:11:53;;;;;;;18.00;4.85;;;9.50;99.90;;;;;;5093822;28;20193;-53
2023/01/12 03:14:21;;;;;;;14.63;4.50;;;9.60;99.90;;;;;;5093477;28;20173;-54
2023/01/12 03:16:49;;;;;;;15.13;4.57;;;9.50;99.90;;;;;;5094034;28;20178;-54
2023/01/12 03:19:20;;;;;;;20.58;4.90;;;9.60;99.90;;;;;;5094023;28;20186;-54
2023/01/12 03:21:56;;;;;;;21.40;5.10;;;9.60;99.90;;;;;;5093579;28;20166;-51
2023/01/12 03:24:29;;;;;;;21.83;5.30;;;9.50;99.90;;;;;;5093601;28;20284;-53
2023/01/12 03:27:02;;;;;;;21.98;4.82;;;9.50;99.90;;;;;;5093469;28;20177;-54
2023/01/12 03:29:35;;;;;;;15.65;4.57;;;9.50;99.90;;;;;;5093715;28;20170;-54
2023/01/12 03:32:01;;;;;;;19.05;4.50;;;9.50;99.90;;;;;;5093431;28;20587;-52
2023/01/12 03:34:27;;;;;;;27.77;5.45;;;9.60;99.90;;;;;;5093533;28;20209;-53
2023/01/12 03:37:17;;;;;;;19.52;4.82;;;9.60;99.90;;;;;;5093385;28;20175;-56
2023/01/12 03:39:55;;;;;;;18.73;5.20;;;9.60;99.90;;;;;;5093510;28;20565;-53
2023/01/12 03:42:59;;;;;;;20.33;4.78;;;9.60;99.90;;;;;;5093490;28;20197;-53
2023/01/12 03:45:36;;;;;;;20.73;5.50;;;9.60;99.90;;;;;;5093335;28;20193;-54
2023/01/12 03:48:13;;;;;;;21.02;5.28;;;9.60;99.90;;;;;;5093532;28;20173;-53
2023/01/12 03:51:04;;;;;;;26.25;5.07;;;9.50;99.90;;;;;;5093262;28;20172;-54
2023/01/12 03:53:31;;;;;;;22.58;5.63;;;9.50;99.90;;;;;;5093268;28;20260;-51
2023/01/12 03:56:03;;;;;;;19.83;4.68;;;9.50;99.90;;;;;;5093132;28;20255;-54
2023/01/12 03:58:30;;;;;;;16.42;4.45;;;9.60;99.90;;;;;;5093135;28;20627;-52
2023/01/12 04:00:55;;;;;;;23.38;4.88;;;9.60;99.90;;;;;;5093258;28;20182;-53
2023/01/12 04:03:23;;;;;;;19.88;4.55;;;9.60;99.90;;;;;;5093186;28;20583;-54
2023/01/12 04:05:48;;;;;;;17.20;4.72;;;9.60;99.90;;;;;;5095938;28;20186;-54
2023/01/12 04:08:15;;;;;;;16.02;4.38;;;9.60;99.90;;;;;;5097470;28;20170;-53
2023/01/12 04:10:41;;;;;;;20.75;4.50;;;9.60;99.90;;;;;;5097078;28;20178;-54
2023/01/12 04:13:07;;;;;;;20.52;4.97;;;9.60;99.90;;;;;;5097491;28;20180;-54
2023/01/12 04:15:41;;;;;;;18.40;4.80;;;9.60;99.90;;;;;;5097224;28;20185;-53
2023/01/12 04:18:08;;;;;;;17.50;4.55;;;9.60;99.90;;;;;;5097068;28;20269;-54
2023/01/12 04:20:33;;;;;;;16.08;4.75;;;9.70;99.90;;;;;;5096954;28;20235;-54
2023/01/12 04:22:59;;;;;;;15.95;4.85;;;9.70;99.90;;;;;;5096819;28;20209;-54
2023/01/12 04:25:24;;;;;;;14.73;4.63;;;9.70;99.90;;;;;;5097082;28;20189;-52
2023/01/12 04:28:02;;;;;;;18.75;4.75;;;9.60;99.90;;;;;;5096938;28;20178;-54
2023/01/12 04:30:30;;;;;;;18.67;5.35;;;9.60;99.90;;;;;;5096929;28;20177;-54
2023/01/12 04:32:57;;;;;;;15.13;4.80;;;9.60;99.90;;;;;;5096692;28;20234;-54
2023/01/12 04:35:24;;;;;;;16.63;4.53;;;9.70;99.90;;;;;;5096628;28;20615;-54
2023/01/12 04:37:50;;;;;;;14.63;4.88;;;9.60;99.90;;;;;;5096861;28;20182;-54
2023/01/12 04:40:17;;;;;;;18.70;4.80;;;9.50;99.90;;;;;;5096756;28;20170;-53
2023/01/12 04:43:01;;;;;;;15.70;4.80;;;9.60;99.90;;;;;;5096504;28;20174;-54
2023/01/12 04:45:27;;;;;;;14.50;4.30;;;9.60;99.90;;;;;;5096557;28;20563;-54
2023/01/12 04:47:53;;;;;;;17.40;4.70;;;9.60;99.90;;;;;;5096391;28;20175;-56
2023/01/12 04:50:19;;;;;;;13.88;4.22;;;9.60;99.90;;;;;;5096610;28;20181;-55
2023/01/12 04:52:44;;;;;;;17.20;4.28;;;9.60;99.90;;;;;;5096642;28;20309;-55
2023/01/12 04:55:10;;;;;;;17.60;4.82;;;9.50;99.90;;;;;;5096432;28;20251;-53
2023/01/12 04:57:36;;;;;;;14.85;4.20;;;9.60;99.90;;;;;;5096380;28;20174;-54
2023/01/12 05:00:04;;;;;;;16.75;4.78;;;9.60;99.90;;;;;;5096237;28;20700;-55
2023/01/12 05:02:29;;;;;;;13.68;4.50;;;9.70;99.90;;;;;;5096000;28;20169;-54
2023/01/12 05:04:55;;;;;;;19.95;4.55;;;9.60;99.90;;;;;;5096235;28;20274;-53
2023/01/12 05:07:21;;;;;;;17.60;4.43;;;9.60;99.90;;;;;;5096295;28;20184;-54
2023/01/12 05:12:30;;;;;;;13.45;3.67;;;9.60;99.90;;;;;;5096258;28;20239;-55
2023/01/12 05:14:56;;;;;;;14.23;3.50;;;9.60;99.90;;;;;;5095788;28;20174;-54
2023/01/12 05:17:22;;;;;;;17.95;4.00;;;9.60;99.90;;;;;;5095534;28;20286;-54
2023/01/12 05:19:48;;;;;;;15.95;3.50;;;9.60;99.90;;;;;;5078062;28;20202;-55
2023/01/12 05:22:14;;;;;;;17.13;3.80;;;9.60;99.90;;;;;;5096202;28;20257;-55
2023/01/12 05:24:40;;;;;;;18.63;3.78;;;9.60;99.90;;;;;;5095804;28;20299;-55
2023/01/12 05:27:05;;;;;;;14.45;3.78;;;9.70;99.90;;;;;;5094923;28;20543;-55
2023/01/12 05:29:31;;;;;;;17.77;4.03;;;9.70;99.90;;;;;;5095608;28;20182;-55
2023/01/12 05:31:57;;;;;;;15.45;3.60;;;9.70;99.90;;;;;;5095258;28;20181;-54
2023/01/12 05:34:22;;;;;;;13.85;3.60;;;9.70;99.90;;;;;;5095735;28;20718;-54
2023/01/12 05:36:48;;;;;;;15.60;3.88;;;9.70;99.90;;;;;;5077169;28;20201;-53
2023/01/12 05:39:14;;;;;;;17.75;4.13;;;9.70;99.90;;;;;;5077287;28;20650;-52
2023/01/12 05:43:48;;;;;;;13.50;3.95;;;9.80;99.90;;;;;;5095172;28;20639;-53
2023/01/12 05:44:26;;;;;;;12.02;3.38;;;9.80;99.90;;;;;;5095082;28;20586;-54
2023/01/12 05:46:52;;;;;;;15.10;3.58;;;9.70;99.90;;;;;;5095114;28;20170;-53
2023/01/12 05:49:17;;;;;;;13.73;3.65;;;9.70;99.90;;;;;;5077150;28;20182;-54
2023/01/12 05:51:43;;;;;;;17.17;3.15;;;9.80;99.90;;;;;;5095245;28;20247;-54
2023/01/12 05:54:08;;;;;;;6.65;2.40;;;9.70;99.90;;;;;;5077076;28;20193;-54
2023/01/12 05:56:34;;;;;;;12.32;3.35;;;9.70;99.90;;;;;;5095109;28;20178;-55
2023/01/12 05:59:03;;;;;;;12.37;3.20;;;9.70;99.90;;;;;;5094866;28;20515;-54
2023/01/12 06:01:30;;;;;;;10.63;3.05;;;9.80;99.90;;;;;;5095016;28;20174;-55
2023/01/12 06:03:57;;;;;;;10.98;3.17;;;9.70;99.90;;;;;;5076674;28;20296;-54
2023/01/12 06:06:25;;;;;;;11.73;3.03;;;9.80;99.90;;;;;;5094482;28;20170;-52
2023/01/12 06:08:51;;;;;;;11.00;2.80;;;9.80;99.90;;;;;;5094598;28;20700;-54
2023/01/12 06:14:09;;;;;;;14.93;3.00;;;9.90;99.90;;;;;;5063321;28;20285;-54
2023/01/12 06:16:41;;;;;;;13.18;3.28;;;9.90;99.90;;;;;;5094877;28;20257;-54
2023/01/12 06:19:07;;;;;;;11.02;3.13;;;9.80;99.90;;;;;;5094610;28;20541;-52
2023/01/12 06:21:33;;;;;;;12.00;3.22;;;9.90;99.90;;;;;;5094891;28;20172;-54
2023/01/12 06:23:59;;;;;;;10.07;3.17;;;9.90;99.90;;;;;;5094453;28;20558;-52
2023/01/12 06:26:25;;;;;;;12.60;3.97;;;9.90;99.90;;;;;;5076405;28;20735;-54
2023/01/12 06:28:50;;;;;;;14.82;3.67;;;9.90;99.90;;;;;;5093792;28;20227;-54
2023/01/12 06:31:16;;;;;;;14.48;3.95;;;9.90;99.90;;;;;;5094575;28;20538;-51
2023/01/12 06:33:42;;;;;;;14.50;3.80;;;9.90;99.90;;;;;;5094468;28;20177;-54
2023/01/12 06:36:09;;;;;;;12.85;3.80;;;9.90;99.90;;;;;;5094339;28;20181;-54
2023/01/12 06:38:36;;;;;;;14.70;3.60;;;9.90;99.90;;;;;;5075992;28;20543;-52
2023/01/12 06:42:27;;;;;;;10.85;3.45;;;9.90;99.90;;;;;;5094311;28;20173;-52
2023/01/12 06:43:58;;;;;;;15.30;3.78;;;9.90;99.90;;;;;;5093997;28;20678;-54
2023/01/12 06:46:27;;;;;;;15.88;3.47;;;9.90;99.90;;;;;;5076059;28;20178;-53
2023/01/12 06:48:57;;;;;;;11.25;3.08;;;9.90;99.90;;;;;;5093995;28;20180;-53
2023/01/12 06:51:23;;;;;;;10.93;3.15;;;9.90;99.90;;;;;;5093999;28;20527;-52
2023/01/12 06:53:48;;;;;;;13.48;3.67;;;9.90;99.90;;;;;;5093983;28;20176;-52
2023/01/12 06:56:14;;;;;;;12.52;2.95;;;9.90;99.90;;;;;;5094093;28;20214;-55
2023/01/12 06:58:43;;;;;;;10.05;3.30;;;9.90;99.90;;;;;;5093996;28;20531;-53
2023/01/12 07:01:09;;;;;;;9.70;3.22;;;10.00;99.90;;;;;;5093862;28;20651;-51
2023/01/12 07:03:34;;;;;;;11.02;3.28;;;10.00;99.90;;;;;;5093757;28;20243;-52
2023/01/12 07:06:00;;;;;;;11.02;3.00;;;10.00;99.90;;;;;;5094092;28;20264;-51
2023/01/12 07:08:26;;;;;;;12.98;3.45;;;10.00;99.90;;;;;;5093932;28;20174;-52
2023/01/12 07:10:52;;;;;;;8.80;2.92;;;9.90;99.90;;;;;;5093839;28;20180;-51
2023/01/12 07:13:18;;;;;;;11.00;3.40;;;10.00;99.90;;;;;;5093610;28;20263;-53
2023/01/12 07:15:44;;;;;;;11.23;3.25;;;10.00;99.90;;;;;;5093713;28;20166;-53
2023/01/12 07:18:09;;;;;;;14.43;3.50;;;10.10;99.90;;;;;;5093590;28;20174;-52
2023/01/12 07:20:35;;;;;;;11.15;3.15;;;10.00;99.90;;;;;;5093601;28;20655;-54
2023/01/12 07:23:01;;;;;;;10.07;2.90;;;10.10;99.90;;;;;;5093733;28;20254;-54
2023/01/12 07:25:27;;;;;;;13.45;3.20;;;10.10;99.90;;;;;;5093629;28;20635;-54
2023/01/12 07:27:55;;;;;;;11.73;3.15;;;10.10;99.90;;;;;;5093536;28;20170;-54
2023/01/12 07:30:21;;;;;;;12.35;3.33;;;10.10;99.90;;;;;;5093484;28;20196;-51
2023/01/12 07:32:48;;;;;;;10.00;3.55;;;10.10;99.90;;;;;;5093408;28;20193;-53
2023/01/12 07:35:14;;;;;;;12.15;3.47;;;10.10;99.90;;;;;;5093415;28;20266;-51
2023/01/12 07:37:50;;;;;;;8.90;3.80;;;10.10;99.90;;;;;;5093755;28;20657;-51
2023/01/12 07:40:16;;;;;;;10.80;3.40;;;10.10;99.90;;;;;;5093304;28;20174;-53
2023/01/12 07:42:42;;;;;;;9.98;2.85;;;10.20;99.90;;;;;;5093453;28;20657;-54
2023/01/12 07:45:08;;;;;;;10.57;3.30;;;10.20;99.90;;;;;;5093122;28;20190;-54
2023/01/12 07:47:34;;;;;;;10.52;3.35;;;10.20;99.90;;;;;;5093440;28;20185;-53
2023/01/12 07:49:59;;;;;;;10.85;3.85;;;10.30;99.90;;;;;;5093411;28;20174;-54
2023/01/12 07:52:25;;;;;;;12.38;3.33;;;10.30;99.90;;;;;;5093371;28;20178;-54
2023/01/12 07:54:51;;;;;;;12.73;3.80;;;10.20;99.90;;;;;;5093290;28;20177;-54
2023/01/12 07:57:17;;;;;;;11.40;3.58;;;10.20;99.90;;;;;;5093165;28;20513;-51
2023/01/12 07:59:43;;;;;;;10.48;3.78;;;10.30;99.90;;;;;;5093015;28;20181;-54
2023/01/12 08:02:15;;;;;;;11.60;3.60;;;10.20;99.90;;;;;;5093131;28;20252;-53
2023/01/12 08:04:41;;;;;;;11.68;3.75;;;10.20;99.90;;;;;;5093196;28;20218;-52
2023/01/12 08:07:07;;;;;;;11.27;3.65;;;10.30;99.90;;;;;;5093059;28;20174;-54
2023/01/12 08:09:32;;;;;;;12.43;3.70;;;10.30;99.90;;;;;;5093180;28;20182;-54
2023/01/12 08:11:58;;;;;;;9.80;3.70;;;10.30;99.90;;;;;;5093130;28;20231;-54
2023/01/12 08:14:32;;;;;;;13.95;3.75;;;10.40;99.90;;;;;;5093343;28;20221;-54
2023/01/12 08:17:00;;;;;;;9.02;3.47;;;10.30;99.90;;;;;;5093177;28;20235;-53
2023/01/12 08:19:37;;;;;;;11.13;3.70;;;10.30;99.90;;;;;;5092896;28;20637;-53
2023/01/12 08:22:07;;;;;;;7.68;3.53;;;10.40;99.90;;;;;;5093061;28;20176;-54
2023/01/12 08:24:40;;;;;;;12.32;4.40;;;10.40;99.90;;;;;;5092875;28;20209;-54
2023/01/12 08:27:07;;;;;;;8.63;4.15;;;10.50;99.90;;;;;;5093135;28;20178;-54
2023/01/12 08:29:45;;;;;;;12.70;3.88;;;10.40;99.90;;;;;;5093319;28;20170;-53
2023/01/12 08:32:12;;;;;;;8.05;3.78;;;10.40;99.90;;;;;;5093009;28;20307;-52
2023/01/12 08:34:41;;;;;;;11.88;3.95;;;10.50;99.90;;;;;;5092914;28;20208;-52
2023/01/12 08:37:09;;;;;;;7.70;3.15;;;10.50;99.90;;;;;;5092816;28;20170;-51
2023/01/12 08:39:35;;;;;;;8.98;3.65;;;10.50;99.90;;;;;;5092752;28;20652;-54
2023/01/12 08:42:01;;;;;;;8.25;3.53;;;10.40;99.90;;;;;;5092895;28;20523;-53
2023/01/12 08:44:32;;;;;;;7.78;4.00;;;10.50;99.90;;;;;;5092625;28;20351;-54
2023/01/12 08:46:58;;;;;;;12.77;3.55;;;10.50;99.90;;;;;;5092816;28;20177;-54
2023/01/12 08:49:26;;;;;;;13.55;3.85;;;10.50;99.90;;;;;;5092632;28;20174;-52
2023/01/12 08:51:52;;;;;;;7.82;3.95;;;10.50;99.90;;;;;;5095123;28;20169;-53
2023/01/12 08:54:19;;;;;;;8.88;3.72;;;10.60;99.90;;;;;;5096589;28;20181;-54
2023/01/12 08:56:45;;;;;;;5.45;3.45;;;10.60;99.90;;;;;;5096451;28;20227;-54
2023/01/12 08:59:11;;;;;;;9.27;3.42;;;10.60;99.90;;;;;;5096477;28;20181;-55
2023/01/12 09:01:38;;;;;;;8.70;3.60;;;10.50;99.90;;;;;;5096234;28;20206;-54
2023/01/12 09:04:04;;;;;;;6.28;3.35;;;10.50;99.90;;;;;;5096160;28;20190;-54
2023/01/12 09:06:36;;;;;;;10.93;3.53;;;10.50;99.90;;;;;;5096032;28;20180;-54
2023/01/12 09:09:07;;;;;;;6.60;3.00;;;10.60;99.90;;;;;;5096275;28;20162;-52
2023/01/12 09:11:34;;;;;;;6.45;3.00;;;10.50;99.90;;;;;;5096217;28;20224;-53
2023/01/12 09:14:00;;;;;;;6.30;2.78;;;10.60;99.90;;;;;;5095998;28;20269;-54
2023/01/12 09:16:28;;;;;;;7.78;3.03;;;10.60;99.90;;;;;;5095954;28;20265;-55
2023/01/12 09:18:54;;;;;;;6.53;2.58;;;10.60;99.90;;;;;;5095793;28;20580;-54
2023/01/12 09:21:21;;;;;;;5.18;2.25;;;10.60;99.90;;;;;;5095942;28;20178;-54
2023/01/12 09:23:48;;;;;;;3.30;2.05;;;10.60;99.90;;;;;;5095716;28;20202;-55
2023/01/12 09:26:19;;;;;;;5.60;2.15;;;10.60;99.90;;;;;;5095623;28;20650;-54
2023/01/12 09:28:45;;;;;;;4.55;2.20;;;10.80;99.90;;;;;;5096091;28;20218;-54
2023/01/12 09:31:17;;;;;;;4.88;2.08;;;10.70;99.90;;;;;;5095595;28;20185;-55
2023/01/12 09:33:43;;;;;;;6.78;2.17;;;10.70;99.90;;;;;;5095810;28;20501;-54
2023/01/12 09:36:14;;;;;;;3.38;1.90;;;10.80;99.90;;;;;;5095706;28;20176;-54
2023/01/12 09:38:42;;;;;;;3.05;1.73;;;10.80;99.90;;;;;;5095666;28;20519;-54
2023/01/12 09:47:35;;;;;;;3.53;1.70;;;10.80;99.90;;;;;;5095353;28;20226;-53
2023/01/12 09:50:10;;;;;;;4.93;1.88;;;10.80;99.90;;;;;;5095299;28;20205;-54
2023/01/12 09:52:44;;;;;;;5.18;1.83;;;10.80;99.90;;;;;;5095742;28;20265;-55
2023/01/12 09:55:39;;;;;;;4.90;2.42;;;10.80;99.90;;;;;;5095332;28;20174;-52
2023/01/12 09:58:35;;;;;;;6.07;2.47;;;10.70;99.90;;;;;;5092113;28;20189;-56
2023/01/12 10:01:09;;;;;;;3.55;1.92;;;10.80;99.90;;;;;;5095321;28;20655;-53
2023/01/12 10:03:40;;;;;;;3.05;1.80;;;10.80;99.90;;;;;;5095097;28;20200;-53
2023/01/12 10:06:13;;;;;;;3.63;2.00;;;10.80;99.90;;;;;;5095062;28;20174;-54
2023/01/12 10:08:59;;;;;;;5.28;2.17;;;10.90;99.90;;;;;;5095039;28;20172;-54
2023/01/12 10:11:28;;;;;;;5.43;2.50;;;10.90;99.90;;;;;;5094952;28;20177;-53
2023/01/12 10:14:12;;;;;;;4.30;2.25;;;10.90;99.90;;;;;;5094826;28;20207;-54
2023/01/12 10:17:04;;;;;;;5.28;2.17;;;10.90;99.90;;;;;;5094844;28;20601;-53
2023/01/12 10:19:52;;;;;;;5.47;2.42;;;10.90;99.90;;;;;;5094681;28;20156;-55
2023/01/12 10:22:37;;;;;;;5.90;2.65;;;11.00;99.90;;;;;;5094879;28;20224;-54
2023/01/12 10:25:21;;;;;;;4.60;2.38;;;11.00;99.90;;;;;;5094551;28;20757;-55
2023/01/12 10:27:49;;;;;;;3.63;2.25;;;11.00;99.90;;;;;;5094409;28;20216;-54
2023/01/12 10:30:23;;;;;;;6.35;2.60;;;11.10;99.90;;;;;;5094635;28;20170;-54
2023/01/12 10:32:49;;;;;;;5.50;2.50;;;11.10;99.90;;;;;;5094593;28;20574;-54
2023/01/12 10:35:17;;;;;;;6.97;2.97;;;11.10;99.90;;;;;;5094462;28;20162;-55
2023/01/12 10:37:55;;;;;;;7.25;2.72;;;11.10;99.90;;;;;;5094230;28;20174;-53
2023/01/12 10:40:31;;;;;;;8.15;3.10;;;11.10;99.90;;;;;;5094357;28;20582;-54
2023/01/12 10:43:18;;;;;;;7.68;3.13;;;11.10;99.90;;;;;;5094232;28;20177;-54
2023/01/12 10:46:00;;;;;;;8.57;3.00;;;11.20;99.90;;;;;;5094311;28;20170;-55
2023/01/12 10:48:26;;;;;;;10.68;3.30;;;11.20;99.90;;;;;;5094123;28;20646;-54
2023/01/12 10:51:04;;;;;;;7.15;2.90;;;11.20;99.90;;;;;;5094331;28;20260;-54
2023/01/12 10:53:46;;;;;;;11.50;3.17;;;11.20;99.90;;;;;;5094255;28;20174;-54
2023/01/12 10:56:36;;;;;;;8.70;2.80;;;11.10;99.90;;;;;;5093950;28;20182;-55
2023/01/12 10:59:18;;;;;;;10.27;3.22;;;11.10;99.90;;;;;;5093985;28;20236;-56
2023/01/12 11:02:04;;;;;;;8.02;3.10;;;11.10;99.90;;;;;;5094139;28;20165;-55
2023/01/12 11:04:35;;;;;;;8.10;3.00;;;11.10;99.90;;;;;;5092722;28;20208;-53
2023/01/12 11:07:02;;;;;;;7.80;3.00;;;11.10;99.90;;;;;;5093859;28;20251;-54
2023/01/12 11:09:30;;;;;;;4.68;2.38;;;11.10;99.90;;;;;;5093659;28;20182;-55
2023/01/12 11:12:35;;;;;;;8.75;2.83;;;11.10;99.90;;;;;;5093720;28;20539;-54
2023/01/12 11:15:09;;;;;;;4.57;2.30;;;11.20;99.90;;;;;;5089070;28;20305;-55
2023/01/12 11:20:27;;;;;;;8.10;2.38;;;11.10;99.90;;;;;;5093861;28;20182;-55
2023/01/12 11:22:56;;;;;;;5.30;2.00;;;11.10;99.90;;;;;;5093937;28;20252;-56
2023/01/12 11:25:24;;;;;;;4.03;1.90;;;11.00;99.90;;;;;;5093576;28;20227;-54
2023/01/12 11:27:56;;;;;;;4.63;1.90;;;11.10;99.90;;;;;;5093631;28;20216;-55
2023/01/12 11:30:29;;;;;;;4.05;2.00;;;11.20;99.90;;;;;;5093484;28;20174;-55
2023/01/12 11:33:07;;;;;;;2.97;1.60;;;11.20;99.90;;;;;;5093554;28;20173;-51
2023/01/12 11:35:38;;;;;;;6.07;1.80;;;11.20;99.90;;;;;;5093547;28;20158;-55
2023/01/12 11:38:15;;;;;;;2.90;1.50;;;11.10;99.90;;;;;;5093525;28;20177;-55
2023/01/12 11:40:42;;;;;;;5.00;1.90;;;11.10;99.90;;;;;;5093323;28;20165;-55
2023/01/12 11:43:48;;;;;;;4.72;1.80;;;11.10;99.90;;;;;;5093309;28;20186;-54
2023/01/12 11:46:33;;;;;;;4.13;1.83;;;11.20;99.90;;;;;;5093251;28;20161;-55
2023/01/12 11:49:36;;;;;;;3.95;1.52;;;11.20;99.90;;;;;;5075141;28;20235;-55
2023/01/12 11:52:02;;;;;;;3.67;2.28;;;11.10;99.90;;;;;;5093400;28;20713;-55
2023/01/12 11:54:29;;;;;;;2.95;2.20;;;11.20;99.90;;;;;;5093185;28;20272;-53
2023/01/12 11:57:07;;;;;;;2.55;1.70;;;11.20;99.90;;;;;;5075217;28;20182;-54
2023/01/12 11:59:58;;;;;;;2.83;1.83;;;11.10;99.90;;;;;;5093461;28;20174;-55
2023/01/12 12:03:04;;;;;;;4.82;2.20;;;11.20;99.90;;;;;;5093135;28;20514;-54
2023/01/12 12:05:38;;;;;;;3.28;1.95;;;11.30;99.90;;;;;;5043272;28;20204;-55
2023/01/12 12:08:48;;;;;;;2.38;2.13;;;11.20;99.90;;;;;;5093362;28;20196;-53
2023/01/12 12:11:26;;;;;;;4.47;2.50;;;11.20;99.90;;;;;;4991505;28;20185;-54
2023/01/12 12:14:04;;;;;;;3.75;2.10;;;11.10;99.90;;;;;;4991425;28;20196;-54
2023/01/12 12:17:02;;;;;;;5.22;2.20;;;11.20;99.90;;;;;;5055027;28;20193;-53
2023/01/12 12:19:39;;;;;;;4.55;2.53;;;11.20;99.90;;;;;;5093129;28;20192;-52
2023/01/12 12:22:32;;;;;;;3.75;2.38;;;11.20;99.90;;;;;;5092901;28;20265;-54
2023/01/12 12:25:12;;;;;;;4.40;4.00;;;11.20;99.90;;;;;;5093121;28;20198;-52
2023/01/12 12:27:44;;;;;;;3.53;2.70;;;11.10;99.90;;;;;;5097004;28;20172;-52
2023/01/12 12:30:54;;;;;;;3.63;2.45;;;11.20;99.90;;;;;;5096984;28;20680;-54
2023/01/12 12:34:04;;;;;;;4.43;2.90;;;11.30;99.90;;;;;;5057847;28;20186;-54
2023/01/12 12:36:47;;;;;;;4.30;2.88;;;11.20;99.90;;;;;;5096767;28;20174;-54
2023/01/12 12:39:16;;;;;;;4.78;2.88;;;11.20;99.90;;;;;;5096958;28;20177;-55
2023/01/12 12:45:16;;;;;;;4.40;2.75;;;11.30;99.90;;;;;;5096490;28;20216;-53
2023/01/12 12:48:06;;;;;;;3.35;2.67;;;11.20;99.90;;;;;;5096718;28;20220;-55
2023/01/12 12:50:39;;;;;;;2.97;2.20;;;11.10;99.90;;;;;;5096568;28;20195;-54
2023/01/12 12:53:14;;;;;;;4.97;2.70;;;11.20;99.90;;;;;;5096517;28;20185;-57
2023/01/12 12:55:41;;;;;;;4.00;2.33;;;11.20;99.90;;;;;;5096323;28;20166;-54
2023/01/12 12:58:22;;;;;;;4.35;2.60;;;11.20;99.90;;;;;;5096516;28;20177;-54
2023/01/12 13:00:52;;;;;;;3.15;2.50;;;11.20;99.90;;;;;;5096454;28;20170;-54
2023/01/12 13:03:40;;;;;;;3.13;2.70;;;11.20;99.90;;;;;;5096166;28;20298;-57
2023/01/12 13:06:24;;;;;;;3.83;2.55;;;11.20;99.90;;;;;;5096061;28;20177;-54
2023/01/12 13:08:53;;;;;;;3.58;2.40;;;11.10;99.90;;;;;;5096577;28;20252;-55
2023/01/12 13:11:19;;;;;;;3.60;2.35;;;11.20;99.90;;;;;;5096125;28;20707;-54
2023/01/12 13:14:04;;;;;;;2.63;2.15;;;11.20;99.90;;;;;;5095989;28;20182;-54
2023/01/12 13:16:30;;;;;;;3.45;1.70;;;11.30;99.90;;;;;;5095889;28;20166;-54
2023/01/12 13:18:55;;;;;;;1.90;1.75;;;11.20;99.90;;;;;;5096081;28;20193;-54
2023/01/12 13:21:42;;;;;;;2.53;2.10;;;11.30;99.90;;;;;;5096002;28;20219;-54
2023/01/12 13:24:13;;;;;;;1.73;1.55;;;11.30;99.90;;;;;;5095822;28;20201;-54
2023/01/12 13:26:42;;;;;;;2.25;1.42;;;11.30;99.90;;;;;;5095775;28;20182;-53
2023/01/12 13:29:23;;;;;;;3.03;1.45;;;11.30;99.90;;;;;;5095924;28;20174;-54
2023/01/12 13:31:50;;;;;;;2.28;1.70;;;11.30;99.90;;;;;;5095796;28;20196;-54
2023/01/12 13:34:41;;;;;;;1.58;1.10;;;11.30;99.90;;;;;;5095760;28;20174;-55
2023/01/12 13:37:42;;;;;;;2.35;1.30;;;11.30;99.90;;;;;;5095126;28;20212;-54
2023/01/12 13:40:15;;;;;;;2.80;1.83;;;11.30;99.90;;;;;;5095758;28;20208;-54